WEATHER DATA

TODAY
Time Temp. Dewp. Hum. Bar.
00:08 1.6 1.2 97 1015
00:18 1.5 0.9 96 1015
00:28 1.4 1 97 1015.1
00:38 1.4 1.1 98 1015.4
00:49 1.3 0.9 97 1015.3
00:59 1.3 1 98 1015.4
01:08 1.2 0.9 98 1015.1
01:18 1.2 0.9 98 1015.3
01:29 1.2 0.9 98 1015.4
01:39 1.2 0.9 98 1015.4
01:49 1.2 1.1 99 1015.6
01:59 1.1 1 99 1015.8
02:09 1.1 1 99 1015.6
02:19 1.1 1 99 1015.7
02:29 1 0.9 99 1015.7
02:40 1 0.9 99 1015.8
02:48 0.9 0.8 99 1015.8
02:59 0.8 0.7 99 1016.2
03:10 0.7 0.6 99 1016.1
03:20 0.6 0.5 99 1016.3
03:29 0.6 0.3 98 1016.5
03:39 0.5 0.2 98 1016.7
03:50 0.4 0.1 98 1016.6
04:00 0.3 0 98 1016.5
04:10 0.2 -0.1 98 1016.7
04:20 0.1 -0.2 98 1016.6
04:30 0.1 -0.2 98 1016.8
04:40 0 -0.2 98 1016.8
04:50 0 -0.2 98 1016.8
05:01 -0.1 -0.3 98 1016.9
05:07 -0.2 -0.4 98 1017
05:17 -0.3 -0.5 98 1017
05:27 -0.4 -0.6 98 1016.9
05:37 -0.6 -0.8 98 1017.2
05:47 -0.6 -0.8 98 1017.2
05:57 -0.7 -0.9 98 1017.2
06:07 -0.7 -0.9 98 1017.2
06:17 -0.8 -1 98 1017.2
06:28 -0.9 -1.1 98 1017.3
06:37 -1 -1.2 98 1017.5
06:47 -1.1 -1.3 98 1017.6
06:58 -1.2 -1.4 98 1017.8
07:08 -1.3 -1.5 98 1017.9
07:17 -1.3 -1.5 98 1018
07:28 -1.3 -1.5 98 1018
07:38 -1.3 -1.5 98 1018
07:48 -1.4 -1.6 98 1018.3
07:58 -1.4 -1.6 98 1018.3
08:07 -1.4 -1.6 98 1018.4
08:18 -1.4 -1.6 98 1018.6
08:28 -1.4 -1.6 98 1018.7
08:39 -1.3 -1.5 98 1018.7
08:49 -1.3 -1.5 98 1018.8
08:58 -1.3 -1.5 98 1018.8
09:08 -1.3 -1.5 98 1018.7
09:19 -1.3 -1.7 97 1018.7
09:29 -1.2 -1.6 97 1018.8
09:39 -1.1 -1.5 97 1018.9
09:49 -0.9 -1.4 96 1019
09:58 -0.8 -1.3 96 1018.9
10:08 -0.8 -1.2 97 1019
10:18 -0.7 -1.2 96 1018.9
10:29 -0.6 -1 97 1019.2
10:39 -0.5 -0.9 97 1019
10:48 -0.4 -0.9 96 1019.2
10:59 -0.2 -0.7 96 1019
11:09 -0.1 -0.6 96 1019
11:19 0 -0.5 96 1018.9
11:29 0 -0.5 96 1019.1
11:39 0.1 -0.4 96 1018.8
11:49 0.2 -0.3 96 1018.7
11:59 0.3 -0.2 96 1018.7
12:10 0.5 -0.1 96 1018.5
12:19 0.7 0.1 96 1018.5
12:29 0.9 0.2 95 1018.5
12:39 1 0.3 95 1017.9
12:50 1.2 0.5 95 1017.8

DAY STATISTIC

2019-01-18
TEMPERATURE
AVERAGE
-0.1
HIGH
1.6
00:08
LOW
-1.4
07:48
PRESSURE
AVERAGE
1017.4
HIGH
1019.2
10:29
LOW
1015.0
00:08
DEWPOINT
AVERAGE
-0.4
HIGH
1.2
00:08
LOW
-1.7
09:19
HUMIDITY
AVERAGE
98
HIGH
99
01:49
LOW
95
12:29
TEMPERATURE (°C)
LOW
-1.4
HIGH
1.6
AVERAGE
-0.1
PRESSURE (hpa)
LOW
1015.0
HIGH
1019.2
AVERAGE
1017.4
DEVICE